Terminal Aerodrome Forecast
Issued by NWS

Home | Current Version | Previous Version | Text Only | Print | Product List | Glossary Off
Versions: 1 2 3 4 5 6 7 8 9 10 11 12 13 14 15 16 17 18

000
FTUS43 KGRB 281700
TAFATW
TAF
KATW 281721Z 2818/2918 16012KT P6SM SCT025 OVC120
      TEMPO 2818/2821 BKN025
     FM290300 15009KT P6SM SCT012 OVC035 PROB30 2906/2910 4SM
      -FZDZSN BR OVC012
     FM291000 30006KT 4SM -SN BR OVC007
     FM291300 31011G16KT 5SM -FZDZSN BR OVC010
     FM291600 32017G25KT P6SM OVC018=

USA.gov is the U.S. government's official web portal to all federal, state and local government web resources and services.